sensor_id;sensor_type;location;lat;lon;timestamp;P1;durP1;ratioP1;P2;durP2;ratioP2
5945;SDS011;2998;48.206;16.394;2024-03-25T00:01:38;3.60;;;3.40;;
5945;SDS011;2998;48.206;16.394;2024-03-25T00:04:25;3.30;;;3.20;;
5945;SDS011;2998;48.206;16.394;2024-03-25T00:07:10;3.40;;;3.20;;
5945;SDS011;2998;48.206;16.394;2024-03-25T00:09:54;2.80;;;2.70;;
5945;SDS011;2998;48.206;16.394;2024-03-25T00:12:40;4.93;;;2.67;;
5945;SDS011;2998;48.206;16.394;2024-03-25T00:15:25;3.00;;;2.90;;
5945;SDS011;2998;48.206;16.394;2024-03-25T00:18:10;2.80;;;2.63;;
5945;SDS011;2998;48.206;16.394;2024-03-25T00:20:56;3.10;;;2.90;;
5945;SDS011;2998;48.206;16.394;2024-03-25T00:23:42;2.73;;;2.60;;
5945;SDS011;2998;48.206;16.394;2024-03-25T00:26:27;3.30;;;3.20;;
5945;SDS011;2998;48.206;16.394;2024-03-25T00:29:12;3.13;;;3.00;;
5945;SDS011;2998;48.206;16.394;2024-03-25T00:31:58;3.70;;;3.50;;
5945;SDS011;2998;48.206;16.394;2024-03-25T00:34:42;4.20;;;4.10;;
5945;SDS011;2998;48.206;16.394;2024-03-25T00:37:29;3.93;;;3.63;;
5945;SDS011;2998;48.206;16.394;2024-03-25T00:40:14;4.27;;;4.07;;
5945;SDS011;2998;48.206;16.394;2024-03-25T00:43:00;3.40;;;3.30;;
5945;SDS011;2998;48.206;16.394;2024-03-25T00:45:44;4.70;;;4.40;;
5945;SDS011;2998;48.206;16.394;2024-03-25T00:48:30;4.17;;;3.97;;
5945;SDS011;2998;48.206;16.394;2024-03-25T00:51:14;4.60;;;4.20;;
5945;SDS011;2998;48.206;16.394;2024-03-25T00:54:01;4.37;;;4.17;;
5945;SDS011;2998;48.206;16.394;2024-03-25T00:56:48;4.03;;;3.93;;
5945;SDS011;2998;48.206;16.394;2024-03-25T00:59:32;4.17;;;4.00;;
5945;SDS011;2998;48.206;16.394;2024-03-25T01:02:18;4.50;;;4.20;;
5945;SDS011;2998;48.206;16.394;2024-03-25T01:05:02;3.40;;;3.30;;
5945;SDS011;2998;48.206;16.394;2024-03-25T01:07:49;3.40;;;3.20;;
5945;SDS011;2998;48.206;16.394;2024-03-25T01:10:34;3.20;;;3.10;;
5945;SDS011;2998;48.206;16.394;2024-03-25T01:13:20;2.50;;;2.40;;
5945;SDS011;2998;48.206;16.394;2024-03-25T01:16:05;2.07;;;1.97;;
5945;SDS011;2998;48.206;16.394;2024-03-25T01:18:51;2.13;;;2.03;;
5945;SDS011;2998;48.206;16.394;2024-03-25T01:21:36;2.17;;;2.00;;
5945;SDS011;2998;48.206;16.394;2024-03-25T01:24:21;2.77;;;2.67;;
5945;SDS011;2998;48.206;16.394;2024-03-25T01:27:07;2.27;;;2.17;;
5945;SDS011;2998;48.206;16.394;2024-03-25T01:29:53;2.47;;;2.30;;
5945;SDS011;2998;48.206;16.394;2024-03-25T01:32:37;2.10;;;2.00;;
5945;SDS011;2998;48.206;16.394;2024-03-25T01:35:23;2.20;;;2.10;;
5945;SDS011;2998;48.206;16.394;2024-03-25T01:38:07;2.30;;;2.10;;
5945;SDS011;2998;48.206;16.394;2024-03-25T01:40:53;2.47;;;2.27;;
5945;SDS011;2998;48.206;16.394;2024-03-25T01:43:39;2.77;;;2.67;;
5945;SDS011;2998;48.206;16.394;2024-03-25T01:46:24;2.50;;;2.40;;
5945;SDS011;2998;48.206;16.394;2024-03-25T01:49:09;3.10;;;2.73;;
5945;SDS011;2998;48.206;16.394;2024-03-25T01:51:56;2.73;;;2.47;;
5945;SDS011;2998;48.206;16.394;2024-03-25T01:54:42;2.57;;;2.37;;
5945;SDS011;2998;48.206;16.394;2024-03-25T01:57:27;2.30;;;2.20;;
5945;SDS011;2998;48.206;16.394;2024-03-25T02:00:13;2.73;;;2.63;;
5945;SDS011;2998;48.206;16.394;2024-03-25T02:03:00;2.47;;;2.37;;
5945;SDS011;2998;48.206;16.394;2024-03-25T02:05:45;3.87;;;3.10;;
5945;SDS011;2998;48.206;16.394;2024-03-25T02:08:31;3.43;;;3.17;;
5945;SDS011;2998;48.206;16.394;2024-03-25T02:11:16;2.80;;;2.60;;
5945;SDS011;2998;48.206;16.394;2024-03-25T02:14:02;2.83;;;2.73;;
5945;SDS011;2998;48.206;16.394;2024-03-25T02:16:48;3.40;;;2.33;;
5945;SDS011;2998;48.206;16.394;2024-03-25T02:19:34;4.03;;;3.47;;
5945;SDS011;2998;48.206;16.394;2024-03-25T02:22:19;4.13;;;2.80;;
5945;SDS011;2998;48.206;16.394;2024-03-25T02:25:05;3.77;;;3.47;;
5945;SDS011;2998;48.206;16.394;2024-03-25T02:27:52;3.23;;;3.13;;
5945;SDS011;2998;48.206;16.394;2024-03-25T02:30:38;3.43;;;3.23;;
5945;SDS011;2998;48.206;16.394;2024-03-25T02:33:24;5.53;;;4.17;;
5945;SDS011;2998;48.206;16.394;2024-03-25T02:36:08;3.83;;;3.63;;
5945;SDS011;2998;48.206;16.394;2024-03-25T02:38:54;5.10;;;4.57;;
5945;SDS011;2998;48.206;16.394;2024-03-25T02:41:40;5.37;;;3.70;;
5945;SDS011;2998;48.206;16.394;2024-03-25T02:44:27;4.63;;;4.33;;
5945;SDS011;2998;48.206;16.394;2024-03-25T02:47:11;4.47;;;4.20;;
5945;SDS011;2998;48.206;16.394;2024-03-25T02:49:57;6.13;;;5.60;;
5945;SDS011;2998;48.206;16.394;2024-03-25T02:52:41;4.80;;;4.50;;
5945;SDS011;2998;48.206;16.394;2024-03-25T02:55:27;5.03;;;4.63;;
5945;SDS011;2998;48.206;16.394;2024-03-25T02:58:12;5.70;;;5.27;;
5945;SDS011;2998;48.206;16.394;2024-03-25T03:00:59;4.10;;;3.70;;
5945;SDS011;2998;48.206;16.394;2024-03-25T03:03:43;4.90;;;4.50;;
5945;SDS011;2998;48.206;16.394;2024-03-25T03:06:29;4.73;;;4.33;;
5945;SDS011;2998;48.206;16.394;2024-03-25T03:09:14;3.50;;;3.33;;
5945;SDS011;2998;48.206;16.394;2024-03-25T03:11:59;5.00;;;4.67;;
5945;SDS011;2998;48.206;16.394;2024-03-25T03:14:44;5.90;;;4.20;;
5945;SDS011;2998;48.206;16.394;2024-03-25T03:17:30;3.57;;;3.37;;
5945;SDS011;2998;48.206;16.394;2024-03-25T03:20:15;3.97;;;3.67;;
5945;SDS011;2998;48.206;16.394;2024-03-25T03:23:00;4.00;;;3.60;;
5945;SDS011;2998;48.206;16.394;2024-03-25T03:25:45;3.70;;;3.50;;
5945;SDS011;2998;48.206;16.394;2024-03-25T03:28:30;3.87;;;3.67;;
5945;SDS011;2998;48.206;16.394;2024-03-25T03:31:15;4.10;;;3.80;;
5945;SDS011;2998;48.206;16.394;2024-03-25T03:34:02;4.13;;;3.90;;
5945;SDS011;2998;48.206;16.394;2024-03-25T03:36:46;4.13;;;3.97;;
5945;SDS011;2998;48.206;16.394;2024-03-25T03:39:32;3.77;;;3.40;;
5945;SDS011;2998;48.206;16.394;2024-03-25T03:42:17;5.87;;;4.80;;
5945;SDS011;2998;48.206;16.394;2024-03-25T03:45:02;15.20;;;4.63;;
5945;SDS011;2998;48.206;16.394;2024-03-25T03:47:47;5.13;;;4.67;;
5945;SDS011;2998;48.206;16.394;2024-03-25T03:50:35;5.50;;;5.00;;
5945;SDS011;2998;48.206;16.394;2024-03-25T03:53:20;7.80;;;5.90;;
5945;SDS011;2998;48.206;16.394;2024-03-25T03:56:06;5.00;;;4.50;;
5945;SDS011;2998;48.206;16.394;2024-03-25T03:58:50;5.60;;;5.20;;
5945;SDS011;2998;48.206;16.394;2024-03-25T04:01:36;4.43;;;4.13;;
5945;SDS011;2998;48.206;16.394;2024-03-25T04:04:20;4.90;;;4.60;;
5945;SDS011;2998;48.206;16.394;2024-03-25T04:07:07;5.20;;;4.80;;
5945;SDS011;2998;48.206;16.394;2024-03-25T04:09:53;4.50;;;4.20;;
5945;SDS011;2998;48.206;16.394;2024-03-25T04:12:39;4.93;;;4.70;;
5945;SDS011;2998;48.206;16.394;2024-03-25T04:15:23;5.30;;;4.77;;
5945;SDS011;2998;48.206;16.394;2024-03-25T04:18:10;5.30;;;4.90;;
5945;SDS011;2998;48.206;16.394;2024-03-25T04:20:55;4.87;;;4.47;;
5945;SDS011;2998;48.206;16.394;2024-03-25T04:23:42;5.00;;;4.60;;
5945;SDS011;2998;48.206;16.394;2024-03-25T04:26:28;4.60;;;4.20;;
5945;SDS011;2998;48.206;16.394;2024-03-25T04:29:14;4.10;;;3.90;;
5945;SDS011;2998;48.206;16.394;2024-03-25T04:32:00;4.73;;;4.33;;
5945;SDS011;2998;48.206;16.394;2024-03-25T04:34:46;5.00;;;4.70;;
5945;SDS011;2998;48.206;16.394;2024-03-25T04:37:30;5.83;;;3.87;;
5945;SDS011;2998;48.206;16.394;2024-03-25T04:40:16;4.57;;;4.17;;
5945;SDS011;2998;48.206;16.394;2024-03-25T04:43:01;4.50;;;4.20;;
5945;SDS011;2998;48.206;16.394;2024-03-25T04:45:46;4.70;;;4.30;;
5945;SDS011;2998;48.206;16.394;2024-03-25T04:48:31;4.00;;;3.80;;
5945;SDS011;2998;48.206;16.394;2024-03-25T04:51:15;8.03;;;5.40;;
5945;SDS011;2998;48.206;16.394;2024-03-25T04:54:00;4.53;;;4.20;;
5945;SDS011;2998;48.206;16.394;2024-03-25T04:56:46;5.10;;;4.70;;
5945;SDS011;2998;48.206;16.394;2024-03-25T04:59:31;5.77;;;5.30;;
5945;SDS011;2998;48.206;16.394;2024-03-25T05:02:15;7.20;;;5.70;;
5945;SDS011;2998;48.206;16.394;2024-03-25T05:05:00;6.30;;;5.67;;
5945;SDS011;2998;48.206;16.394;2024-03-25T05:07:44;5.30;;;4.90;;
5945;SDS011;2998;48.206;16.394;2024-03-25T05:10:29;6.00;;;5.50;;
5945;SDS011;2998;48.206;16.394;2024-03-25T05:13:15;5.13;;;4.43;;
5945;SDS011;2998;48.206;16.394;2024-03-25T05:15:59;6.63;;;5.50;;
5945;SDS011;2998;48.206;16.394;2024-03-25T05:18:44;6.37;;;5.70;;
5945;SDS011;2998;48.206;16.394;2024-03-25T05:21:29;5.00;;;4.70;;
5945;SDS011;2998;48.206;16.394;2024-03-25T05:24:14;4.20;;;4.00;;
5945;SDS011;2998;48.206;16.394;2024-03-25T05:26:59;5.70;;;5.03;;
5945;SDS011;2998;48.206;16.394;2024-03-25T05:29:44;5.87;;;5.10;;
5945;SDS011;2998;48.206;16.394;2024-03-25T05:32:29;5.60;;;5.20;;
5945;SDS011;2998;48.206;16.394;2024-03-25T05:35:13;5.10;;;4.70;;
5945;SDS011;2998;48.206;16.394;2024-03-25T05:37:58;5.60;;;5.20;;
5945;SDS011;2998;48.206;16.394;2024-03-25T05:40:42;17.17;;;6.80;;
5945;SDS011;2998;48.206;16.394;2024-03-25T05:43:29;11.97;;;6.60;;
5945;SDS011;2998;48.206;16.394;2024-03-25T05:46:14;6.47;;;5.80;;
5945;SDS011;2998;48.206;16.394;2024-03-25T05:49:01;5.80;;;5.20;;
5945;SDS011;2998;48.206;16.394;2024-03-25T05:51:45;6.60;;;5.23;;
5945;SDS011;2998;48.206;16.394;2024-03-25T05:54:30;6.33;;;4.93;;
5945;SDS011;2998;48.206;16.394;2024-03-25T05:57:14;5.00;;;4.67;;
5945;SDS011;2998;48.206;16.394;2024-03-25T05:59:59;5.10;;;4.60;;
5945;SDS011;2998;48.206;16.394;2024-03-25T06:02:44;4.90;;;4.60;;
5945;SDS011;2998;48.206;16.394;2024-03-25T06:05:29;9.00;;;5.37;;
5945;SDS011;2998;48.206;16.394;2024-03-25T06:08:13;5.23;;;4.93;;
5945;SDS011;2998;48.206;16.394;2024-03-25T06:11:00;7.53;;;5.67;;
5945;SDS011;2998;48.206;16.394;2024-03-25T06:13:45;4.83;;;4.43;;
5945;SDS011;2998;48.206;16.394;2024-03-25T06:16:30;5.70;;;5.30;;
5945;SDS011;2998;48.206;16.394;2024-03-25T06:19:16;4.80;;;4.50;;
5945;SDS011;2998;48.206;16.394;2024-03-25T06:22:00;5.37;;;4.97;;
5945;SDS011;2998;48.206;16.394;2024-03-25T06:24:44;7.00;;;4.77;;
5945;SDS011;2998;48.206;16.394;2024-03-25T06:27:29;9.40;;;7.20;;
5945;SDS011;2998;48.206;16.394;2024-03-25T06:30:13;7.70;;;6.90;;
5945;SDS011;2998;48.206;16.394;2024-03-25T06:33:17;44.00;;;20.47;;
5945;SDS011;2998;48.206;16.394;2024-03-25T06:36:21;10.60;;;7.23;;
5945;SDS011;2998;48.206;16.394;2024-03-25T06:39:06;7.37;;;6.63;;
5945;SDS011;2998;48.206;16.394;2024-03-25T06:41:50;6.63;;;6.13;;
5945;SDS011;2998;48.206;16.394;2024-03-25T06:44:35;7.00;;;6.37;;
5945;SDS011;2998;48.206;16.394;2024-03-25T06:47:20;5.73;;;5.30;;
5945;SDS011;2998;48.206;16.394;2024-03-25T06:50:04;5.53;;;5.00;;
5945;SDS011;2998;48.206;16.394;2024-03-25T06:52:51;5.43;;;5.13;;
5945;SDS011;2998;48.206;16.394;2024-03-25T06:55:35;5.23;;;4.93;;
5945;SDS011;2998;48.206;16.394;2024-03-25T06:58:20;5.40;;;4.80;;
5945;SDS011;2998;48.206;16.394;2024-03-25T07:01:05;10.23;;;5.10;;
5945;SDS011;2998;48.206;16.394;2024-03-25T07:03:50;5.00;;;4.60;;
5945;SDS011;2998;48.206;16.394;2024-03-25T07:06:35;6.90;;;4.67;;
5945;SDS011;2998;48.206;16.394;2024-03-25T07:09:21;5.30;;;4.90;;
5945;SDS011;2998;48.206;16.394;2024-03-25T07:12:06;5.73;;;5.23;;
5945;SDS011;2998;48.206;16.394;2024-03-25T07:14:51;3.97;;;3.60;;
5945;SDS011;2998;48.206;16.394;2024-03-25T07:17:35;2.80;;;2.70;;
5945;SDS011;2998;48.206;16.394;2024-03-25T07:20:20;2.87;;;2.77;;
5945;SDS011;2998;48.206;16.394;2024-03-25T07:23:04;3.70;;;3.40;;
5945;SDS011;2998;48.206;16.394;2024-03-25T07:25:51;3.20;;;3.00;;
5945;SDS011;2998;48.206;16.394;2024-03-25T07:28:35;4.77;;;3.20;;
5945;SDS011;2998;48.206;16.394;2024-03-25T07:31:20;4.50;;;2.80;;
5945;SDS011;2998;48.206;16.394;2024-03-25T07:34:04;5.70;;;3.23;;
5945;SDS011;2998;48.206;16.394;2024-03-25T07:36:48;2.57;;;2.40;;
5945;SDS011;2998;48.206;16.394;2024-03-25T07:39:33;3.80;;;2.83;;
5945;SDS011;2998;48.206;16.394;2024-03-25T07:42:19;4.80;;;2.70;;
5945;SDS011;2998;48.206;16.394;2024-03-25T07:45:03;3.57;;;2.73;;
5945;SDS011;2998;48.206;16.394;2024-03-25T07:47:49;2.87;;;2.70;;
5945;SDS011;2998;48.206;16.394;2024-03-25T07:50:34;3.13;;;2.70;;
5945;SDS011;2998;48.206;16.394;2024-03-25T07:53:18;3.50;;;3.20;;
5945;SDS011;2998;48.206;16.394;2024-03-25T07:56:03;8.73;;;2.77;;
5945;SDS011;2998;48.206;16.394;2024-03-25T07:58:49;4.03;;;2.17;;
5945;SDS011;2998;48.206;16.394;2024-03-25T08:01:34;3.03;;;2.50;;
5945;SDS011;2998;48.206;16.394;2024-03-25T08:04:18;2.80;;;2.60;;
5945;SDS011;2998;48.206;16.394;2024-03-25T08:07:03;2.17;;;1.97;;
5945;SDS011;2998;48.206;16.394;2024-03-25T08:09:48;3.00;;;2.80;;
5945;SDS011;2998;48.206;16.394;2024-03-25T08:12:32;5.63;;;3.20;;
5945;SDS011;2998;48.206;16.394;2024-03-25T08:15:18;3.50;;;3.00;;
5945;SDS011;2998;48.206;16.394;2024-03-25T08:18:03;2.60;;;2.50;;
5945;SDS011;2998;48.206;16.394;2024-03-25T08:20:48;3.07;;;2.83;;
5945;SDS011;2998;48.206;16.394;2024-03-25T08:23:32;2.77;;;2.67;;
5945;SDS011;2998;48.206;16.394;2024-03-25T08:26:17;2.70;;;2.50;;
5945;SDS011;2998;48.206;16.394;2024-03-25T08:29:02;2.43;;;2.23;;
5945;SDS011;2998;48.206;16.394;2024-03-25T08:31:48;3.40;;;3.17;;
5945;SDS011;2998;48.206;16.394;2024-03-25T08:34:33;2.77;;;2.57;;
5945;SDS011;2998;48.206;16.394;2024-03-25T08:37:18;2.67;;;2.50;;
5945;SDS011;2998;48.206;16.394;2024-03-25T08:40:03;5.60;;;3.17;;
5945;SDS011;2998;48.206;16.394;2024-03-25T08:42:48;2.90;;;2.50;;
5945;SDS011;2998;48.206;16.394;2024-03-25T08:45:32;5.37;;;2.30;;
5945;SDS011;2998;48.206;16.394;2024-03-25T08:48:18;2.80;;;2.33;;
5945;SDS011;2998;48.206;16.394;2024-03-25T08:51:03;2.20;;;2.00;;
5945;SDS011;2998;48.206;16.394;2024-03-25T08:53:48;3.43;;;2.00;;
5945;SDS011;2998;48.206;16.394;2024-03-25T08:56:32;3.10;;;2.57;;
5945;SDS011;2998;48.206;16.394;2024-03-25T08:59:17;2.60;;;2.00;;
5945;SDS011;2998;48.206;16.394;2024-03-25T09:02:01;2.50;;;2.30;;
5945;SDS011;2998;48.206;16.394;2024-03-25T09:04:47;4.33;;;1.63;;
5945;SDS011;2998;48.206;16.394;2024-03-25T09:07:31;4.73;;;2.37;;
5945;SDS011;2998;48.206;16.394;2024-03-25T09:10:16;3.93;;;2.30;;
5945;SDS011;2998;48.206;16.394;2024-03-25T09:13:19;2.20;;;2.10;;
5945;SDS011;2998;48.206;16.394;2024-03-25T09:16:04;2.23;;;2.03;;
5945;SDS011;2998;48.206;16.394;2024-03-25T09:18:49;2.20;;;2.10;;
5945;SDS011;2998;48.206;16.394;2024-03-25T09:21:35;3.13;;;2.40;;
5945;SDS011;2998;48.206;16.394;2024-03-25T09:24:20;3.10;;;1.93;;
5945;SDS011;2998;48.206;16.394;2024-03-25T09:27:04;2.50;;;2.20;;
5945;SDS011;2998;48.206;16.394;2024-03-25T09:29:49;2.13;;;1.90;;
5945;SDS011;2998;48.206;16.394;2024-03-25T09:32:33;1.90;;;1.80;;
5945;SDS011;2998;48.206;16.394;2024-03-25T09:35:18;2.20;;;2.10;;
5945;SDS011;2998;48.206;16.394;2024-03-25T09:38:04;1.60;;;1.50;;
5945;SDS011;2998;48.206;16.394;2024-03-25T09:40:50;1.77;;;1.67;;
5945;SDS011;2998;48.206;16.394;2024-03-25T09:43:40;2.90;;;2.30;;
5945;SDS011;2998;48.206;16.394;2024-03-25T09:46:27;3.33;;;1.70;;
5945;SDS011;2998;48.206;16.394;2024-03-25T09:49:11;2.43;;;1.87;;
5945;SDS011;2998;48.206;16.394;2024-03-25T09:51:57;2.00;;;1.90;;
5945;SDS011;2998;48.206;16.394;2024-03-25T09:54:43;2.40;;;2.10;;
5945;SDS011;2998;48.206;16.394;2024-03-25T09:57:28;5.10;;;2.13;;
5945;SDS011;2998;48.206;16.394;2024-03-25T10:00:13;2.40;;;2.20;;
5945;SDS011;2998;48.206;16.394;2024-03-25T10:02:58;2.90;;;2.00;;
5945;SDS011;2998;48.206;16.394;2024-03-25T10:05:42;1.93;;;1.83;;
5945;SDS011;2998;48.206;16.394;2024-03-25T10:08:27;2.63;;;1.53;;
5945;SDS011;2998;48.206;16.394;2024-03-25T10:11:14;2.67;;;1.80;;
5945;SDS011;2998;48.206;16.394;2024-03-25T10:13:59;2.93;;;1.77;;
5945;SDS011;2998;48.206;16.394;2024-03-25T10:16:44;1.83;;;1.73;;
5945;SDS011;2998;48.206;16.394;2024-03-25T10:19:29;3.73;;;2.53;;
5945;SDS011;2998;48.206;16.394;2024-03-25T10:22:13;2.63;;;2.40;;
5945;SDS011;2998;48.206;16.394;2024-03-25T10:24:58;2.60;;;2.40;;
5945;SDS011;2998;48.206;16.394;2024-03-25T10:27:52;1.93;;;1.80;;
5945;SDS011;2998;48.206;16.394;2024-03-25T10:30:37;4.77;;;1.50;;
5945;SDS011;2998;48.206;16.394;2024-03-25T10:33:21;1.77;;;1.67;;
5945;SDS011;2998;48.206;16.394;2024-03-25T10:36:06;1.53;;;1.43;;
5945;SDS011;2998;48.206;16.394;2024-03-25T10:38:53;1.97;;;1.87;;
5945;SDS011;2998;48.206;16.394;2024-03-25T10:41:39;2.43;;;2.33;;
5945;SDS011;2998;48.206;16.394;2024-03-25T10:44:25;2.10;;;2.00;;
5945;SDS011;2998;48.206;16.394;2024-03-25T10:47:11;2.23;;;2.03;;
5945;SDS011;2998;48.206;16.394;2024-03-25T10:49:58;10.50;;;1.90;;
5945;SDS011;2998;48.206;16.394;2024-03-25T10:52:43;1.90;;;1.80;;
5945;SDS011;2998;48.206;16.394;2024-03-25T10:55:28;1.83;;;1.73;;
5945;SDS011;2998;48.206;16.394;2024-03-25T10:58:14;3.53;;;1.63;;
5945;SDS011;2998;48.206;16.394;2024-03-25T11:01:01;1.87;;;1.77;;
5945;SDS011;2998;48.206;16.394;2024-03-25T11:03:46;1.70;;;1.60;;
5945;SDS011;2998;48.206;16.394;2024-03-25T11:06:32;2.90;;;2.00;;
5945;SDS011;2998;48.206;16.394;2024-03-25T11:09:22;3.80;;;1.90;;
5945;SDS011;2998;48.206;16.394;2024-03-25T11:12:10;2.17;;;2.07;;
5945;SDS011;2998;48.206;16.394;2024-03-25T11:14:56;1.53;;;1.43;;
5945;SDS011;2998;48.206;16.394;2024-03-25T11:17:49;2.87;;;1.60;;
5945;SDS011;2998;48.206;16.394;2024-03-25T11:20:34;2.67;;;2.47;;
5945;SDS011;2998;48.206;16.394;2024-03-25T11:23:18;2.50;;;2.03;;
5945;SDS011;2998;48.206;16.394;2024-03-25T11:26:03;2.00;;;1.90;;
5945;SDS011;2998;48.206;16.394;2024-03-25T11:28:47;2.47;;;2.00;;
5945;SDS011;2998;48.206;16.394;2024-03-25T11:31:32;1.93;;;1.80;;
5945;SDS011;2998;48.206;16.394;2024-03-25T11:34:18;3.77;;;1.80;;
5945;SDS011;2998;48.206;16.394;2024-03-25T11:37:03;1.90;;;1.80;;
5945;SDS011;2998;48.206;16.394;2024-03-25T11:39:48;2.30;;;2.10;;
5945;SDS011;2998;48.206;16.394;2024-03-25T11:42:33;1.73;;;1.63;;
5945;SDS011;2998;48.206;16.394;2024-03-25T11:45:17;2.93;;;2.33;;
5945;SDS011;2998;48.206;16.394;2024-03-25T11:48:03;2.53;;;2.33;;
5945;SDS011;2998;48.206;16.394;2024-03-25T11:50:50;4.33;;;2.60;;
5945;SDS011;2998;48.206;16.394;2024-03-25T11:53:34;2.67;;;2.40;;
5945;SDS011;2998;48.206;16.394;2024-03-25T11:56:19;5.50;;;2.27;;
5945;SDS011;2998;48.206;16.394;2024-03-25T11:59:04;2.43;;;2.23;;
5945;SDS011;2998;48.206;16.394;2024-03-25T12:01:49;2.70;;;2.50;;
5945;SDS011;2998;48.206;16.394;2024-03-25T12:04:33;1.90;;;1.80;;
5945;SDS011;2998;48.206;16.394;2024-03-25T12:07:19;2.10;;;2.00;;
5945;SDS011;2998;48.206;16.394;2024-03-25T12:10:04;4.87;;;2.53;;
5945;SDS011;2998;48.206;16.394;2024-03-25T12:13:08;2.07;;;1.97;;
5945;SDS011;2998;48.206;16.394;2024-03-25T12:15:52;4.50;;;2.57;;
5945;SDS011;2998;48.206;16.394;2024-03-25T12:18:39;3.70;;;2.60;;
5945;SDS011;2998;48.206;16.394;2024-03-25T12:21:25;2.20;;;2.00;;
5945;SDS011;2998;48.206;16.394;2024-03-25T12:24:10;3.73;;;2.30;;
5945;SDS011;2998;48.206;16.394;2024-03-25T12:26:55;3.87;;;2.13;;
5945;SDS011;2998;48.206;16.394;2024-03-25T12:29:40;3.50;;;2.27;;
5945;SDS011;2998;48.206;16.394;2024-03-25T12:32:32;2.80;;;2.60;;
5945;SDS011;2998;48.206;16.394;2024-03-25T12:35:20;3.03;;;2.23;;
5945;SDS011;2998;48.206;16.394;2024-03-25T12:38:05;7.33;;;2.17;;
5945;SDS011;2998;48.206;16.394;2024-03-25T12:40:51;1.90;;;1.80;;
5945;SDS011;2998;48.206;16.394;2024-03-25T12:43:41;2.90;;;2.07;;
5945;SDS011;2998;48.206;16.394;2024-03-25T12:46:27;4.00;;;2.47;;
5945;SDS011;2998;48.206;16.394;2024-03-25T12:49:12;2.20;;;2.10;;
5945;SDS011;2998;48.206;16.394;2024-03-25T12:51:56;2.03;;;1.93;;
5945;SDS011;2998;48.206;16.394;2024-03-25T12:54:40;2.50;;;2.30;;
5945;SDS011;2998;48.206;16.394;2024-03-25T12:57:26;6.00;;;2.10;;
5945;SDS011;2998;48.206;16.394;2024-03-25T13:00:11;6.33;;;2.30;;
5945;SDS011;2998;48.206;16.394;2024-03-25T13:02:56;2.40;;;2.30;;
5945;SDS011;2998;48.206;16.394;2024-03-25T13:05:42;2.27;;;2.00;;
5945;SDS011;2998;48.206;16.394;2024-03-25T13:08:27;2.13;;;1.70;;
5945;SDS011;2998;48.206;16.394;2024-03-25T13:11:12;12.30;;;2.50;;
5945;SDS011;2998;48.206;16.394;2024-03-25T13:13:57;5.40;;;1.97;;
5945;SDS011;2998;48.206;16.394;2024-03-25T13:16:42;1.70;;;1.60;;
5945;SDS011;2998;48.206;16.394;2024-03-25T13:19:26;2.70;;;1.70;;
5945;SDS011;2998;48.206;16.394;2024-03-25T13:22:11;2.17;;;2.07;;
5945;SDS011;2998;48.206;16.394;2024-03-25T13:24:55;2.50;;;2.30;;
5945;SDS011;2998;48.206;16.394;2024-03-25T13:27:40;2.47;;;2.23;;
5945;SDS011;2998;48.206;16.394;2024-03-25T13:30:26;4.10;;;2.10;;
5945;SDS011;2998;48.206;16.394;2024-03-25T13:33:10;3.20;;;2.13;;
5945;SDS011;2998;48.206;16.394;2024-03-25T13:35:55;2.40;;;2.27;;
5945;SDS011;2998;48.206;16.394;2024-03-25T13:38:39;3.20;;;2.33;;
5945;SDS011;2998;48.206;16.394;2024-03-25T13:41:24;1.90;;;1.80;;
5945;SDS011;2998;48.206;16.394;2024-03-25T13:44:08;4.70;;;2.00;;
5945;SDS011;2998;48.206;16.394;2024-03-25T13:46:54;1.63;;;1.53;;
5945;SDS011;2998;48.206;16.394;2024-03-25T13:49:39;1.90;;;1.70;;
5945;SDS011;2998;48.206;16.394;2024-03-25T13:52:24;2.30;;;2.10;;
5945;SDS011;2998;48.206;16.394;2024-03-25T13:55:08;2.03;;;1.83;;
5945;SDS011;2998;48.206;16.394;2024-03-25T13:57:53;2.37;;;1.80;;
5945;SDS011;2998;48.206;16.394;2024-03-25T14:00:37;5.30;;;2.23;;
5945;SDS011;2998;48.206;16.394;2024-03-25T14:03:23;1.80;;;1.70;;
5945;SDS011;2998;48.206;16.394;2024-03-25T14:06:07;2.67;;;1.83;;
5945;SDS011;2998;48.206;16.394;2024-03-25T14:08:52;2.17;;;2.00;;
5945;SDS011;2998;48.206;16.394;2024-03-25T14:11:36;6.20;;;1.77;;
5945;SDS011;2998;48.206;16.394;2024-03-25T14:14:21;4.70;;;2.33;;
5945;SDS011;2998;48.206;16.394;2024-03-25T14:17:05;1.60;;;1.50;;
5945;SDS011;2998;48.206;16.394;2024-03-25T14:19:53;3.57;;;1.70;;
5945;SDS011;2998;48.206;16.394;2024-03-25T14:22:37;2.50;;;1.60;;
5945;SDS011;2998;48.206;16.394;2024-03-25T14:25:23;3.40;;;1.67;;
5945;SDS011;2998;48.206;16.394;2024-03-25T14:28:07;2.20;;;2.00;;
5945;SDS011;2998;48.206;16.394;2024-03-25T14:30:51;3.30;;;1.50;;
5945;SDS011;2998;48.206;16.394;2024-03-25T14:33:36;2.03;;;1.60;;
5945;SDS011;2998;48.206;16.394;2024-03-25T14:36:22;1.80;;;1.70;;
5945;SDS011;2998;48.206;16.394;2024-03-25T14:39:07;1.50;;;1.40;;
5945;SDS011;2998;48.206;16.394;2024-03-25T14:41:52;1.60;;;1.50;;
5945;SDS011;2998;48.206;16.394;2024-03-25T14:44:37;1.20;;;1.20;;
5945;SDS011;2998;48.206;16.394;2024-03-25T14:47:22;1.60;;;1.50;;
5945;SDS011;2998;48.206;16.394;2024-03-25T14:50:07;1.90;;;1.80;;
5945;SDS011;2998;48.206;16.394;2024-03-25T14:52:54;1.50;;;1.20;;
5945;SDS011;2998;48.206;16.394;2024-03-25T14:55:38;1.50;;;1.40;;
5945;SDS011;2998;48.206;16.394;2024-03-25T14:58:22;3.67;;;1.67;;
5945;SDS011;2998;48.206;16.394;2024-03-25T15:01:07;1.37;;;1.27;;
5945;SDS011;2998;48.206;16.394;2024-03-25T15:03:51;1.93;;;1.83;;
5945;SDS011;2998;48.206;16.394;2024-03-25T15:06:36;6.40;;;2.37;;
5945;SDS011;2998;48.206;16.394;2024-03-25T15:09:22;1.70;;;1.60;;
5945;SDS011;2998;48.206;16.394;2024-03-25T15:12:06;1.83;;;1.50;;
5945;SDS011;2998;48.206;16.394;2024-03-25T15:14:51;1.80;;;1.70;;
5945;SDS011;2998;48.206;16.394;2024-03-25T15:17:36;1.93;;;1.47;;
5945;SDS011;2998;48.206;16.394;2024-03-25T15:20:20;3.40;;;1.90;;
5945;SDS011;2998;48.206;16.394;2024-03-25T15:23:05;1.80;;;1.70;;
5945;SDS011;2998;48.206;16.394;2024-03-25T15:25:51;2.00;;;1.83;;
5945;SDS011;2998;48.206;16.394;2024-03-25T15:28:35;1.47;;;1.37;;
5945;SDS011;2998;48.206;16.394;2024-03-25T15:31:19;2.20;;;1.07;;
5945;SDS011;2998;48.206;16.394;2024-03-25T15:34:04;2.27;;;1.87;;
5945;SDS011;2998;48.206;16.394;2024-03-25T15:36:49;3.10;;;1.30;;
5945;SDS011;2998;48.206;16.394;2024-03-25T15:39:34;1.43;;;1.33;;
5945;SDS011;2998;48.206;16.394;2024-03-25T15:42:19;1.37;;;1.27;;
5945;SDS011;2998;48.206;16.394;2024-03-25T15:45:04;1.77;;;1.67;;
5945;SDS011;2998;48.206;16.394;2024-03-25T15:47:49;1.43;;;1.33;;
5945;SDS011;2998;48.206;16.394;2024-03-25T15:50:34;1.50;;;1.40;;
5945;SDS011;2998;48.206;16.394;2024-03-25T15:53:19;1.50;;;1.40;;
5945;SDS011;2998;48.206;16.394;2024-03-25T15:56:03;1.20;;;1.10;;
5945;SDS011;2998;48.206;16.394;2024-03-25T15:58:50;1.40;;;1.30;;
5945;SDS011;2998;48.206;16.394;2024-03-25T16:01:35;1.60;;;1.47;;
5945;SDS011;2998;48.206;16.394;2024-03-25T16:04:20;2.20;;;1.00;;
5945;SDS011;2998;48.206;16.394;2024-03-25T16:07:04;1.57;;;1.47;;
5945;SDS011;2998;48.206;16.394;2024-03-25T16:09:49;1.60;;;1.50;;
5945;SDS011;2998;48.206;16.394;2024-03-25T16:12:33;2.30;;;1.40;;
5945;SDS011;2998;48.206;16.394;2024-03-25T16:15:19;1.50;;;1.37;;
5945;SDS011;2998;48.206;16.394;2024-03-25T16:18:04;1.40;;;1.33;;
5945;SDS011;2998;48.206;16.394;2024-03-25T16:20:49;1.20;;;1.20;;
5945;SDS011;2998;48.206;16.394;2024-03-25T16:23:34;1.40;;;1.30;;
5945;SDS011;2998;48.206;16.394;2024-03-25T16:26:18;3.37;;;1.50;;
5945;SDS011;2998;48.206;16.394;2024-03-25T16:29:03;1.37;;;1.27;;
5945;SDS011;2998;48.206;16.394;2024-03-25T16:31:48;1.43;;;1.33;;
5945;SDS011;2998;48.206;16.394;2024-03-25T16:34:33;2.40;;;1.50;;
5945;SDS011;2998;48.206;16.394;2024-03-25T16:37:17;1.63;;;1.43;;
5945;SDS011;2998;48.206;16.394;2024-03-25T16:40:02;3.70;;;3.30;;
5945;SDS011;2998;48.206;16.394;2024-03-25T16:42:47;5.43;;;2.40;;
5945;SDS011;2998;48.206;16.394;2024-03-25T16:45:32;1.67;;;1.57;;
5945;SDS011;2998;48.206;16.394;2024-03-25T16:48:17;2.10;;;1.27;;
5945;SDS011;2998;48.206;16.394;2024-03-25T16:51:02;1.73;;;1.63;;